Terminal Aerodrome Forecast
Issued by NWS

Home | Current Version | Previous Version | Text Only | Print | Product List | Glossary On
Versions: 1 2 3 4 5 6 7 8 9 10 11 12 13 14 15 16 17 18 19 20
857
FTUS45 KTFX 181127
TAFCTB
TAF
KCTB 181127Z 1812/1912 25018G25KT P6SM SCT070 BKN130
      TEMPO 1814/1818 26030G45KT BKN070
     FM181800 28020G33KT P6SM SCT025 OVC040
      TEMPO 1818/1821 -SN SCT010 OVC025
     FM182100 33014G24KT 3/4SM -SN BLSN BR SCT010 OVC025=

USA.gov is the U.S. government's official web portal to all federal, state and local government web resources and services.